sensor_id;sensor_type;location;lat;lon;timestamp;temperature;humidity
69189;DHT22;56302;52.322;5.926;2023-11-21T00:01:35;7.00;99.90
69189;DHT22;56302;52.322;5.926;2023-11-21T00:04:01;6.90;99.90
69189;DHT22;56302;52.322;5.926;2023-11-21T00:06:27;6.90;99.90
69189;DHT22;56302;52.322;5.926;2023-11-21T00:08:52;6.90;99.90
69189;DHT22;56302;52.322;5.926;2023-11-21T00:11:18;6.90;99.90
69189;DHT22;56302;52.322;5.926;2023-11-21T00:13:44;6.80;99.90
69189;DHT22;56302;52.322;5.926;2023-11-21T00:16:09;6.70;99.90
69189;DHT22;56302;52.322;5.926;2023-11-21T00:18:35;6.70;99.90
69189;DHT22;56302;52.322;5.926;2023-11-21T00:21:01;6.60;99.90
69189;DHT22;56302;52.322;5.926;2023-11-21T00:23:26;6.60;99.90
69189;DHT22;56302;52.322;5.926;2023-11-21T00:25:52;6.60;99.90
69189;DHT22;56302;52.322;5.926;2023-11-21T00:28:17;6.60;99.90
69189;DHT22;56302;52.322;5.926;2023-11-21T00:30:43;6.60;99.90
69189;DHT22;56302;52.322;5.926;2023-11-21T00:33:08;6.60;99.90
69189;DHT22;56302;52.322;5.926;2023-11-21T00:35:34;6.50;99.90
69189;DHT22;56302;52.322;5.926;2023-11-21T00:38:00;6.50;99.90
69189;DHT22;56302;52.322;5.926;2023-11-21T00:40:25;6.60;99.90
69189;DHT22;56302;52.322;5.926;2023-11-21T00:42:51;6.60;99.90
69189;DHT22;56302;52.322;5.926;2023-11-21T00:45:16;6.60;99.90
69189;DHT22;56302;52.322;5.926;2023-11-21T00:47:42;6.60;99.90
69189;DHT22;56302;52.322;5.926;2023-11-21T00:50:08;6.60;99.90
69189;DHT22;56302;52.322;5.926;2023-11-21T00:52:34;6.60;99.90
69189;DHT22;56302;52.322;5.926;2023-11-21T00:55:01;6.60;99.90
69189;DHT22;56302;52.322;5.926;2023-11-21T00:57:28;6.60;99.90
69189;DHT22;56302;52.322;5.926;2023-11-21T00:59:54;6.60;99.90
69189;DHT22;56302;52.322;5.926;2023-11-21T01:02:20;6.60;99.90
69189;DHT22;56302;52.322;5.926;2023-11-21T01:04:45;6.60;99.90
69189;DHT22;56302;52.322;5.926;2023-11-21T01:07:11;6.60;99.90
69189;DHT22;56302;52.322;5.926;2023-11-21T01:09:36;6.60;99.90
69189;DHT22;56302;52.322;5.926;2023-11-21T01:12:02;6.60;99.90
69189;DHT22;56302;52.322;5.926;2023-11-21T01:14:27;6.60;99.90
69189;DHT22;56302;52.322;5.926;2023-11-21T01:16:53;6.60;99.90
69189;DHT22;56302;52.322;5.926;2023-11-21T01:19:19;6.60;99.90
69189;DHT22;56302;52.322;5.926;2023-11-21T01:21:44;6.70;99.90
69189;DHT22;56302;52.322;5.926;2023-11-21T01:24:10;6.70;99.90
69189;DHT22;56302;52.322;5.926;2023-11-21T01:26:36;6.70;99.90
69189;DHT22;56302;52.322;5.926;2023-11-21T01:29:01;6.70;99.90
69189;DHT22;56302;52.322;5.926;2023-11-21T01:31:27;6.70;99.90
69189;DHT22;56302;52.322;5.926;2023-11-21T01:33:57;6.70;99.90
69189;DHT22;56302;52.322;5.926;2023-11-21T01:36:30;6.70;99.90
69189;DHT22;56302;52.322;5.926;2023-11-21T01:38:57;6.80;99.90
69189;DHT22;56302;52.322;5.926;2023-11-21T01:41:25;6.80;99.90
69189;DHT22;56302;52.322;5.926;2023-11-21T01:43:52;6.80;99.90
69189;DHT22;56302;52.322;5.926;2023-11-21T01:46:22;6.80;99.90
69189;DHT22;56302;52.322;5.926;2023-11-21T01:48:49;6.80;99.90
69189;DHT22;56302;52.322;5.926;2023-11-21T01:51:15;6.80;99.90
69189;DHT22;56302;52.322;5.926;2023-11-21T01:53:40;6.80;99.90
69189;DHT22;56302;52.322;5.926;2023-11-21T01:56:07;6.80;99.90
69189;DHT22;56302;52.322;5.926;2023-11-21T01:58:33;6.90;99.90
69189;DHT22;56302;52.322;5.926;2023-11-21T02:00:59;6.80;99.90
69189;DHT22;56302;52.322;5.926;2023-11-21T02:03:25;6.80;99.90
69189;DHT22;56302;52.322;5.926;2023-11-21T02:05:52;6.90;99.90
69189;DHT22;56302;52.322;5.926;2023-11-21T02:08:19;6.90;99.90
69189;DHT22;56302;52.322;5.926;2023-11-21T02:10:45;6.90;99.90
69189;DHT22;56302;52.322;5.926;2023-11-21T02:13:11;6.80;99.90
69189;DHT22;56302;52.322;5.926;2023-11-21T02:15:37;6.80;99.90
69189;DHT22;56302;52.322;5.926;2023-11-21T02:18:04;6.80;99.90
69189;DHT22;56302;52.322;5.926;2023-11-21T02:20:31;6.90;99.90
69189;DHT22;56302;52.322;5.926;2023-11-21T02:23:00;6.90;99.90
69189;DHT22;56302;52.322;5.926;2023-11-21T02:25:26;6.90;99.90
69189;DHT22;56302;52.322;5.926;2023-11-21T02:27:56;6.90;99.90
69189;DHT22;56302;52.322;5.926;2023-11-21T02:30:22;6.90;99.90
69189;DHT22;56302;52.322;5.926;2023-11-21T02:32:48;6.90;99.90
69189;DHT22;56302;52.322;5.926;2023-11-21T02:35:14;6.90;99.90
69189;DHT22;56302;52.322;5.926;2023-11-21T02:37:41;6.90;99.90
69189;DHT22;56302;52.322;5.926;2023-11-21T02:40:09;6.90;99.90
69189;DHT22;56302;52.322;5.926;2023-11-21T02:42:35;6.90;99.90
69189;DHT22;56302;52.322;5.926;2023-11-21T02:45:00;6.90;99.90
69189;DHT22;56302;52.322;5.926;2023-11-21T02:47:26;7.00;99.90
69189;DHT22;56302;52.322;5.926;2023-11-21T02:49:52;7.00;99.90
69189;DHT22;56302;52.322;5.926;2023-11-21T02:52:18;7.00;99.90
69189;DHT22;56302;52.322;5.926;2023-11-21T02:54:44;7.00;99.90
69189;DHT22;56302;52.322;5.926;2023-11-21T02:57:10;7.10;99.90
69189;DHT22;56302;52.322;5.926;2023-11-21T02:59:35;7.10;99.90
69189;DHT22;56302;52.322;5.926;2023-11-21T03:02:01;7.10;99.90
69189;DHT22;56302;52.322;5.926;2023-11-21T03:04:26;7.10;99.90
69189;DHT22;56302;52.322;5.926;2023-11-21T03:06:52;7.10;99.90
69189;DHT22;56302;52.322;5.926;2023-11-21T03:09:17;7.10;99.90
69189;DHT22;56302;52.322;5.926;2023-11-21T03:11:43;7.20;99.90
69189;DHT22;56302;52.322;5.926;2023-11-21T03:14:08;7.20;99.90
69189;DHT22;56302;52.322;5.926;2023-11-21T03:16:34;7.20;99.90
69189;DHT22;56302;52.322;5.926;2023-11-21T03:19:00;7.30;99.90
69189;DHT22;56302;52.322;5.926;2023-11-21T03:21:26;7.30;99.90
69189;DHT22;56302;52.322;5.926;2023-11-21T03:23:51;7.30;99.90
69189;DHT22;56302;52.322;5.926;2023-11-21T03:26:18;7.30;99.90
69189;DHT22;56302;52.322;5.926;2023-11-21T03:28:43;7.30;99.90
69189;DHT22;56302;52.322;5.926;2023-11-21T03:31:09;7.40;99.90
69189;DHT22;56302;52.322;5.926;2023-11-21T03:33:35;7.40;99.90
69189;DHT22;56302;52.322;5.926;2023-11-21T03:36:01;7.30;99.90
69189;DHT22;56302;52.322;5.926;2023-11-21T03:38:26;7.40;99.90
69189;DHT22;56302;52.322;5.926;2023-11-21T03:40:52;7.40;99.90
69189;DHT22;56302;52.322;5.926;2023-11-21T03:43:18;7.40;99.90
69189;DHT22;56302;52.322;5.926;2023-11-21T03:45:44;7.40;99.90
69189;DHT22;56302;52.322;5.926;2023-11-21T03:48:12;7.40;99.90
69189;DHT22;56302;52.322;5.926;2023-11-21T03:50:38;7.40;99.90
69189;DHT22;56302;52.322;5.926;2023-11-21T03:53:04;7.50;99.90
69189;DHT22;56302;52.322;5.926;2023-11-21T03:55:30;7.50;99.90
69189;DHT22;56302;52.322;5.926;2023-11-21T03:57:57;7.50;99.90
69189;DHT22;56302;52.322;5.926;2023-11-21T04:00:23;7.50;99.90
69189;DHT22;56302;52.322;5.926;2023-11-21T04:02:49;7.50;99.90
69189;DHT22;56302;52.322;5.926;2023-11-21T04:05:16;7.50;99.90
69189;DHT22;56302;52.322;5.926;2023-11-21T04:07:41;7.50;99.90
69189;DHT22;56302;52.322;5.926;2023-11-21T04:10:08;7.50;99.90
69189;DHT22;56302;52.322;5.926;2023-11-21T04:12:38;7.60;99.90
69189;DHT22;56302;52.322;5.926;2023-11-21T04:15:04;7.60;99.90
69189;DHT22;56302;52.322;5.926;2023-11-21T04:17:30;7.60;99.90
69189;DHT22;56302;52.322;5.926;2023-11-21T04:19:56;7.60;99.90
69189;DHT22;56302;52.322;5.926;2023-11-21T04:22:21;7.60;99.90
69189;DHT22;56302;52.322;5.926;2023-11-21T04:24:47;7.60;99.90
69189;DHT22;56302;52.322;5.926;2023-11-21T04:27:12;7.60;99.90
69189;DHT22;56302;52.322;5.926;2023-11-21T04:29:39;7.70;99.90
69189;DHT22;56302;52.322;5.926;2023-11-21T04:32:06;7.70;99.90
69189;DHT22;56302;52.322;5.926;2023-11-21T04:34:33;7.70;99.90
69189;DHT22;56302;52.322;5.926;2023-11-21T04:37:00;7.70;99.90
69189;DHT22;56302;52.322;5.926;2023-11-21T04:39:26;7.70;99.90
69189;DHT22;56302;52.322;5.926;2023-11-21T04:41:51;7.70;99.90
69189;DHT22;56302;52.322;5.926;2023-11-21T04:44:17;7.70;99.90
69189;DHT22;56302;52.322;5.926;2023-11-21T04:46:43;7.70;99.90
69189;DHT22;56302;52.322;5.926;2023-11-21T04:49:08;7.70;99.90
69189;DHT22;56302;52.322;5.926;2023-11-21T04:51:34;7.70;99.90
69189;DHT22;56302;52.322;5.926;2023-11-21T04:54:00;7.70;99.90
69189;DHT22;56302;52.322;5.926;2023-11-21T04:56:25;7.70;99.90
69189;DHT22;56302;52.322;5.926;2023-11-21T04:58:53;7.70;99.90
69189;DHT22;56302;52.322;5.926;2023-11-21T05:01:19;7.70;99.90
69189;DHT22;56302;52.322;5.926;2023-11-21T05:03:44;7.70;99.90
69189;DHT22;56302;52.322;5.926;2023-11-21T05:06:10;7.70;99.90
69189;DHT22;56302;52.322;5.926;2023-11-21T05:08:36;7.70;99.90
69189;DHT22;56302;52.322;5.926;2023-11-21T05:11:03;7.80;99.90
69189;DHT22;56302;52.322;5.926;2023-11-21T05:13:28;7.70;99.90
69189;DHT22;56302;52.322;5.926;2023-11-21T05:15:55;7.80;99.90
69189;DHT22;56302;52.322;5.926;2023-11-21T05:18:23;7.70;99.90
69189;DHT22;56302;52.322;5.926;2023-11-21T05:20:49;7.80;99.90
69189;DHT22;56302;52.322;5.926;2023-11-21T05:23:15;7.80;99.90
69189;DHT22;56302;52.322;5.926;2023-11-21T05:25:41;7.80;99.90
69189;DHT22;56302;52.322;5.926;2023-11-21T05:28:06;7.80;99.90
69189;DHT22;56302;52.322;5.926;2023-11-21T05:30:32;7.80;99.90
69189;DHT22;56302;52.322;5.926;2023-11-21T05:32:57;7.80;99.90
69189;DHT22;56302;52.322;5.926;2023-11-21T05:35:23;7.80;99.90
69189;DHT22;56302;52.322;5.926;2023-11-21T05:37:48;7.90;99.90
69189;DHT22;56302;52.322;5.926;2023-11-21T05:40:15;7.80;99.90
69189;DHT22;56302;52.322;5.926;2023-11-21T05:42:41;7.90;99.90
69189;DHT22;56302;52.322;5.926;2023-11-21T05:45:07;7.90;99.90
69189;DHT22;56302;52.322;5.926;2023-11-21T05:47:44;7.90;99.90
69189;DHT22;56302;52.322;5.926;2023-11-21T05:50:12;7.90;99.90
69189;DHT22;56302;52.322;5.926;2023-11-21T05:52:40;7.90;99.90
69189;DHT22;56302;52.322;5.926;2023-11-21T05:55:07;7.90;99.90
69189;DHT22;56302;52.322;5.926;2023-11-21T05:57:33;7.90;99.90
69189;DHT22;56302;52.322;5.926;2023-11-21T06:00:05;7.90;99.90
69189;DHT22;56302;52.322;5.926;2023-11-21T06:02:45;7.90;99.90
69189;DHT22;56302;52.322;5.926;2023-11-21T06:05:11;7.90;99.90
69189;DHT22;56302;52.322;5.926;2023-11-21T06:07:37;7.90;99.90
69189;DHT22;56302;52.322;5.926;2023-11-21T06:10:04;7.90;99.90
69189;DHT22;56302;52.322;5.926;2023-11-21T06:12:37;7.90;99.90
69189;DHT22;56302;52.322;5.926;2023-11-21T06:15:04;8.00;99.90
69189;DHT22;56302;52.322;5.926;2023-11-21T06:17:37;8.00;99.90
69189;DHT22;56302;52.322;5.926;2023-11-21T06:20:04;8.00;99.90
69189;DHT22;56302;52.322;5.926;2023-11-21T06:22:38;8.00;99.90
69189;DHT22;56302;52.322;5.926;2023-11-21T06:25:05;8.00;99.90
69189;DHT22;56302;52.322;5.926;2023-11-21T06:27:34;8.00;99.90
69189;DHT22;56302;52.322;5.926;2023-11-21T06:30:01;8.10;99.90
69189;DHT22;56302;52.322;5.926;2023-11-21T06:32:27;8.10;99.90
69189;DHT22;56302;52.322;5.926;2023-11-21T06:34:58;8.10;99.90
69189;DHT22;56302;52.322;5.926;2023-11-21T06:37:27;8.10;99.90
69189;DHT22;56302;52.322;5.926;2023-11-21T06:39:53;8.10;99.90
69189;DHT22;56302;52.322;5.926;2023-11-21T06:42:19;8.10;99.90
69189;DHT22;56302;52.322;5.926;2023-11-21T06:44:45;8.10;99.90
69189;DHT22;56302;52.322;5.926;2023-11-21T06:47:11;8.10;99.90
69189;DHT22;56302;52.322;5.926;2023-11-21T06:49:36;8.10;99.90
69189;DHT22;56302;52.322;5.926;2023-11-21T06:52:04;8.10;99.90
69189;DHT22;56302;52.322;5.926;2023-11-21T06:54:30;8.20;99.90
69189;DHT22;56302;52.322;5.926;2023-11-21T06:56:56;8.20;99.90
69189;DHT22;56302;52.322;5.926;2023-11-21T06:59:22;8.20;99.90
69189;DHT22;56302;52.322;5.926;2023-11-21T07:01:47;8.20;99.90
69189;DHT22;56302;52.322;5.926;2023-11-21T07:04:13;8.20;99.90
69189;DHT22;56302;52.322;5.926;2023-11-21T07:06:38;8.20;99.90
69189;DHT22;56302;52.322;5.926;2023-11-21T07:09:04;8.20;99.90
69189;DHT22;56302;52.322;5.926;2023-11-21T07:11:29;8.20;99.90
69189;DHT22;56302;52.322;5.926;2023-11-21T07:13:55;8.20;99.90
69189;DHT22;56302;52.322;5.926;2023-11-21T07:16:21;8.20;99.90
69189;DHT22;56302;52.322;5.926;2023-11-21T07:18:47;8.10;99.90
69189;DHT22;56302;52.322;5.926;2023-11-21T07:21:14;8.20;99.90
69189;DHT22;56302;52.322;5.926;2023-11-21T07:23:41;8.20;99.90
69189;DHT22;56302;52.322;5.926;2023-11-21T07:26:07;8.20;99.90
69189;DHT22;56302;52.322;5.926;2023-11-21T07:28:34;8.20;99.90
69189;DHT22;56302;52.322;5.926;2023-11-21T07:31:01;8.20;99.90
69189;DHT22;56302;52.322;5.926;2023-11-21T07:33:26;8.20;99.90
69189;DHT22;56302;52.322;5.926;2023-11-21T07:35:52;8.20;99.90
69189;DHT22;56302;52.322;5.926;2023-11-21T07:38:18;8.30;99.90
69189;DHT22;56302;52.322;5.926;2023-11-21T07:40:44;8.30;99.90
69189;DHT22;56302;52.322;5.926;2023-11-21T07:43:10;8.30;99.90
69189;DHT22;56302;52.322;5.926;2023-11-21T07:45:36;8.30;99.90
69189;DHT22;56302;52.322;5.926;2023-11-21T07:48:01;8.30;99.90
69189;DHT22;56302;52.322;5.926;2023-11-21T07:50:28;8.40;99.90
69189;DHT22;56302;52.322;5.926;2023-11-21T07:52:54;8.40;99.90
69189;DHT22;56302;52.322;5.926;2023-11-21T07:55:20;8.30;99.90
69189;DHT22;56302;52.322;5.926;2023-11-21T07:57:45;8.30;99.90
69189;DHT22;56302;52.322;5.926;2023-11-21T08:00:11;8.30;99.90
69189;DHT22;56302;52.322;5.926;2023-11-21T08:02:39;8.30;99.90
69189;DHT22;56302;52.322;5.926;2023-11-21T08:05:05;8.40;99.90
69189;DHT22;56302;52.322;5.926;2023-11-21T08:07:33;8.40;99.90
69189;DHT22;56302;52.322;5.926;2023-11-21T08:09:58;8.40;99.90
69189;DHT22;56302;52.322;5.926;2023-11-21T08:12:24;8.30;99.90
69189;DHT22;56302;52.322;5.926;2023-11-21T08:14:49;8.40;99.90
69189;DHT22;56302;52.322;5.926;2023-11-21T08:17:15;8.40;99.90
69189;DHT22;56302;52.322;5.926;2023-11-21T08:19:41;8.40;99.90
69189;DHT22;56302;52.322;5.926;2023-11-21T08:22:06;8.40;99.90
69189;DHT22;56302;52.322;5.926;2023-11-21T08:24:33;8.40;99.90
69189;DHT22;56302;52.322;5.926;2023-11-21T08:26:59;8.40;99.90
69189;DHT22;56302;52.322;5.926;2023-11-21T08:29:24;8.40;99.90
69189;DHT22;56302;52.322;5.926;2023-11-21T08:31:50;8.40;99.90
69189;DHT22;56302;52.322;5.926;2023-11-21T08:34:15;8.50;99.90
69189;DHT22;56302;52.322;5.926;2023-11-21T08:36:44;8.50;99.90
69189;DHT22;56302;52.322;5.926;2023-11-21T08:39:10;8.50;99.90
69189;DHT22;56302;52.322;5.926;2023-11-21T08:41:36;8.50;99.90
69189;DHT22;56302;52.322;5.926;2023-11-21T08:44:02;8.50;99.90
69189;DHT22;56302;52.322;5.926;2023-11-21T08:46:32;8.50;99.90
69189;DHT22;56302;52.322;5.926;2023-11-21T08:49:00;8.60;99.90
69189;DHT22;56302;52.322;5.926;2023-11-21T08:51:26;8.60;99.90
69189;DHT22;56302;52.322;5.926;2023-11-21T08:53:51;8.60;99.90
69189;DHT22;56302;52.322;5.926;2023-11-21T08:56:18;8.70;99.90
69189;DHT22;56302;52.322;5.926;2023-11-21T08:58:45;8.70;99.90
69189;DHT22;56302;52.322;5.926;2023-11-21T09:01:12;8.70;99.90
69189;DHT22;56302;52.322;5.926;2023-11-21T09:03:38;8.70;99.90
69189;DHT22;56302;52.322;5.926;2023-11-21T09:06:03;8.80;99.90
69189;DHT22;56302;52.322;5.926;2023-11-21T09:08:30;8.90;99.90
69189;DHT22;56302;52.322;5.926;2023-11-21T09:10:55;8.90;99.90
69189;DHT22;56302;52.322;5.926;2023-11-21T09:13:21;8.90;99.90
69189;DHT22;56302;52.322;5.926;2023-11-21T09:15:46;8.90;99.90
69189;DHT22;56302;52.322;5.926;2023-11-21T09:18:13;8.90;99.90
69189;DHT22;56302;52.322;5.926;2023-11-21T09:20:39;8.90;99.90
69189;DHT22;56302;52.322;5.926;2023-11-21T09:23:04;8.90;99.90
69189;DHT22;56302;52.322;5.926;2023-11-21T09:25:30;8.90;99.90
69189;DHT22;56302;52.322;5.926;2023-11-21T09:27:56;8.90;99.90
69189;DHT22;56302;52.322;5.926;2023-11-21T09:30:23;8.90;99.90
69189;DHT22;56302;52.322;5.926;2023-11-21T09:32:50;8.80;99.90
69189;DHT22;56302;52.322;5.926;2023-11-21T09:35:15;8.80;99.90
69189;DHT22;56302;52.322;5.926;2023-11-21T09:37:43;8.90;99.90
69189;DHT22;56302;52.322;5.926;2023-11-21T09:40:11;8.90;99.90
69189;DHT22;56302;52.322;5.926;2023-11-21T09:42:49;8.90;99.90
69189;DHT22;56302;52.322;5.926;2023-11-21T09:45:28;8.90;99.90
69189;DHT22;56302;52.322;5.926;2023-11-21T09:47:55;8.90;99.90
69189;DHT22;56302;52.322;5.926;2023-11-21T09:50:22;8.90;99.90
69189;DHT22;56302;52.322;5.926;2023-11-21T09:55:30;8.90;99.90
69189;DHT22;56302;52.322;5.926;2023-11-21T09:58:02;8.90;99.90
69189;DHT22;56302;52.322;5.926;2023-11-21T10:00:29;8.90;99.90
69189;DHT22;56302;52.322;5.926;2023-11-21T10:02:58;8.90;99.90
69189;DHT22;56302;52.322;5.926;2023-11-21T10:05:23;8.90;99.90
69189;DHT22;56302;52.322;5.926;2023-11-21T10:07:53;9.00;99.90
69189;DHT22;56302;52.322;5.926;2023-11-21T10:10:23;9.00;99.90
69189;DHT22;56302;52.322;5.926;2023-11-21T10:12:51;9.00;99.90
69189;DHT22;56302;52.322;5.926;2023-11-21T10:15:22;9.00;99.90
69189;DHT22;56302;52.322;5.926;2023-11-21T10:17:49;9.00;99.90
69189;DHT22;56302;52.322;5.926;2023-11-21T10:20:16;9.00;99.90
69189;DHT22;56302;52.322;5.926;2023-11-21T10:22:42;9.00;99.90
69189;DHT22;56302;52.322;5.926;2023-11-21T10:25:09;8.90;99.90
69189;DHT22;56302;52.322;5.926;2023-11-21T10:27:38;8.90;99.90
69189;DHT22;56302;52.322;5.926;2023-11-21T10:30:05;8.90;99.90
69189;DHT22;56302;52.322;5.926;2023-11-21T10:32:31;8.90;99.90
69189;DHT22;56302;52.322;5.926;2023-11-21T10:34:59;8.90;99.90
69189;DHT22;56302;52.322;5.926;2023-11-21T10:37:32;8.90;99.90
69189;DHT22;56302;52.322;5.926;2023-11-21T10:40:01;8.90;99.90
69189;DHT22;56302;52.322;5.926;2023-11-21T10:42:27;8.90;99.90
69189;DHT22;56302;52.322;5.926;2023-11-21T10:44:53;9.00;99.90
69189;DHT22;56302;52.322;5.926;2023-11-21T10:47:19;9.00;99.90
69189;DHT22;56302;52.322;5.926;2023-11-21T10:49:48;9.00;99.90
69189;DHT22;56302;52.322;5.926;2023-11-21T10:52:13;9.00;99.90
69189;DHT22;56302;52.322;5.926;2023-11-21T10:54:43;9.00;99.90
69189;DHT22;56302;52.322;5.926;2023-11-21T10:57:10;9.00;99.90
69189;DHT22;56302;52.322;5.926;2023-11-21T10:59:36;9.00;99.90
69189;DHT22;56302;52.322;5.926;2023-11-21T11:02:25;9.00;99.90
69189;DHT22;56302;52.322;5.926;2023-11-21T11:04:53;9.00;99.90
69189;DHT22;56302;52.322;5.926;2023-11-21T11:07:21;9.00;99.90
69189;DHT22;56302;52.322;5.926;2023-11-21T11:09:49;9.00;99.90
69189;DHT22;56302;52.322;5.926;2023-11-21T11:12:15;9.00;99.90
69189;DHT22;56302;52.322;5.926;2023-11-21T11:14:42;9.00;99.90
69189;DHT22;56302;52.322;5.926;2023-11-21T11:17:10;9.00;99.90
69189;DHT22;56302;52.322;5.926;2023-11-21T11:19:36;9.00;99.90
69189;DHT22;56302;52.322;5.926;2023-11-21T11:23:08;9.00;99.90
69189;DHT22;56302;52.322;5.926;2023-11-21T11:28:07;9.00;99.90
69189;DHT22;56302;52.322;5.926;2023-11-21T11:31:04;9.00;99.90
69189;DHT22;56302;52.322;5.926;2023-11-21T11:33:45;9.00;99.90
69189;DHT22;56302;52.322;5.926;2023-11-21T11:36:23;9.00;99.90
69189;DHT22;56302;52.322;5.926;2023-11-21T11:38:51;9.00;99.90
69189;DHT22;56302;52.322;5.926;2023-11-21T11:41:27;9.10;99.90
69189;DHT22;56302;52.322;5.926;2023-11-21T11:43:55;9.00;99.90
69189;DHT22;56302;52.322;5.926;2023-11-21T11:46:20;9.10;99.90
69189;DHT22;56302;52.322;5.926;2023-11-21T11:49:02;9.10;99.90
69189;DHT22;56302;52.322;5.926;2023-11-21T11:51:28;9.10;99.90
69189;DHT22;56302;52.322;5.926;2023-11-21T11:53:55;9.10;99.90
69189;DHT22;56302;52.322;5.926;2023-11-21T11:56:27;9.10;99.90
69189;DHT22;56302;52.322;5.926;2023-11-21T11:59:02;9.10;99.90
69189;DHT22;56302;52.322;5.926;2023-11-21T12:01:28;9.10;99.90
69189;DHT22;56302;52.322;5.926;2023-11-21T12:06:59;9.10;99.90
69189;DHT22;56302;52.322;5.926;2023-11-21T12:09:26;9.10;99.90
69189;DHT22;56302;52.322;5.926;2023-11-21T12:11:52;9.20;99.90
69189;DHT22;56302;52.322;5.926;2023-11-21T12:14:18;9.20;99.90
69189;DHT22;56302;52.322;5.926;2023-11-21T12:16:44;9.30;99.90
69189;DHT22;56302;52.322;5.926;2023-11-21T12:19:11;9.30;99.90
69189;DHT22;56302;52.322;5.926;2023-11-21T12:21:37;9.30;99.90
69189;DHT22;56302;52.322;5.926;2023-11-21T12:24:03;9.30;99.90
69189;DHT22;56302;52.322;5.926;2023-11-21T12:26:29;9.30;99.90
69189;DHT22;56302;52.322;5.926;2023-11-21T12:28:56;9.30;99.90
69189;DHT22;56302;52.322;5.926;2023-11-21T12:31:22;9.20;99.90
69189;DHT22;56302;52.322;5.926;2023-11-21T12:33:48;9.10;99.90
69189;DHT22;56302;52.322;5.926;2023-11-21T12:36:15;9.10;99.90
69189;DHT22;56302;52.322;5.926;2023-11-21T12:38:41;9.00;99.90
69189;DHT22;56302;52.322;5.926;2023-11-21T12:41:08;9.00;99.90
69189;DHT22;56302;52.322;5.926;2023-11-21T12:43:35;8.90;99.90
69189;DHT22;56302;52.322;5.926;2023-11-21T12:46:11;8.90;99.90
69189;DHT22;56302;52.322;5.926;2023-11-21T12:48:41;8.90;99.90
69189;DHT22;56302;52.322;5.926;2023-11-21T12:51:10;8.90;99.90
69189;DHT22;56302;52.322;5.926;2023-11-21T12:53:38;8.80;99.90
69189;DHT22;56302;52.322;5.926;2023-11-21T12:56:13;8.80;99.90
69189;DHT22;56302;52.322;5.926;2023-11-21T12:58:39;8.80;99.90
69189;DHT22;56302;52.322;5.926;2023-11-21T13:01:07;8.80;99.90
69189;DHT22;56302;52.322;5.926;2023-11-21T13:03:40;8.70;99.90
69189;DHT22;56302;52.322;5.926;2023-11-21T13:06:06;8.70;99.90
69189;DHT22;56302;52.322;5.926;2023-11-21T13:08:33;8.70;99.90
69189;DHT22;56302;52.322;5.926;2023-11-21T13:10:59;8.80;99.90
69189;DHT22;56302;52.322;5.926;2023-11-21T13:13:27;8.70;99.90
69189;DHT22;56302;52.322;5.926;2023-11-21T13:15:58;8.70;99.90
69189;DHT22;56302;52.322;5.926;2023-11-21T13:18:29;8.70;99.90
69189;DHT22;56302;52.322;5.926;2023-11-21T13:21:04;8.70;99.90
69189;DHT22;56302;52.322;5.926;2023-11-21T13:23:35;8.60;99.90
69189;DHT22;56302;52.322;5.926;2023-11-21T13:26:04;8.60;99.90
69189;DHT22;56302;52.322;5.926;2023-11-21T13:28:30;8.60;99.90
69189;DHT22;56302;52.322;5.926;2023-11-21T13:30:59;8.60;99.90
69189;DHT22;56302;52.322;5.926;2023-11-21T13:33:28;8.70;99.90
69189;DHT22;56302;52.322;5.926;2023-11-21T13:35:54;8.60;99.90
69189;DHT22;56302;52.322;5.926;2023-11-21T13:38:22;8.60;99.90
69189;DHT22;56302;52.322;5.926;2023-11-21T13:40:50;8.50;99.90
69189;DHT22;56302;52.322;5.926;2023-11-21T13:43:19;8.50;99.90
69189;DHT22;56302;52.322;5.926;2023-11-21T13:45:47;8.50;99.90
69189;DHT22;56302;52.322;5.926;2023-11-21T13:48:17;8.50;99.90
69189;DHT22;56302;52.322;5.926;2023-11-21T13:50:50;8.50;99.90
69189;DHT22;56302;52.322;5.926;2023-11-21T13:53:35;8.40;99.90
69189;DHT22;56302;52.322;5.926;2023-11-21T13:56:03;8.30;99.90
69189;DHT22;56302;52.322;5.926;2023-11-21T13:58:29;8.30;99.90
69189;DHT22;56302;52.322;5.926;2023-11-21T14:01:10;8.20;99.90
69189;DHT22;56302;52.322;5.926;2023-11-21T14:04:03;8.10;99.90
69189;DHT22;56302;52.322;5.926;2023-11-21T14:06:49;8.10;99.70
69189;DHT22;56302;52.322;5.926;2023-11-21T14:09:21;8.10;99.40
69189;DHT22;56302;52.322;5.926;2023-11-21T14:11:57;8.00;99.10
69189;DHT22;56302;52.322;5.926;2023-11-21T14:14:27;8.00;98.40
69189;DHT22;56302;52.322;5.926;2023-11-21T14:16:53;7.90;98.10
69189;DHT22;56302;52.322;5.926;2023-11-21T14:19:21;7.90;97.90
69189;DHT22;56302;52.322;5.926;2023-11-21T14:21:47;7.90;97.80
69189;DHT22;56302;52.322;5.926;2023-11-21T14:24:14;7.90;97.70
69189;DHT22;56302;52.322;5.926;2023-11-21T14:26:46;7.90;97.90
69189;DHT22;56302;52.322;5.926;2023-11-21T14:29:13;8.00;98.10
69189;DHT22;56302;52.322;5.926;2023-11-21T14:31:41;8.00;98.20
69189;DHT22;56302;52.322;5.926;2023-11-21T14:34:07;8.00;98.30
69189;DHT22;56302;52.322;5.926;2023-11-21T14:36:36;7.90;98.20
69189;DHT22;56302;52.322;5.926;2023-11-21T14:39:03;7.90;97.20
69189;DHT22;56302;52.322;5.926;2023-11-21T14:41:32;7.80;96.40
69189;DHT22;56302;52.322;5.926;2023-11-21T14:44:00;7.70;95.30
69189;DHT22;56302;52.322;5.926;2023-11-21T14:46:28;7.70;95.10
69189;DHT22;56302;52.322;5.926;2023-11-21T14:48:53;7.70;94.80
69189;DHT22;56302;52.322;5.926;2023-11-21T14:51:33;7.60;94.80
69189;DHT22;56302;52.322;5.926;2023-11-21T14:54:08;7.60;94.80
69189;DHT22;56302;52.322;5.926;2023-11-21T14:56:37;7.60;94.70
69189;DHT22;56302;52.322;5.926;2023-11-21T14:59:08;7.60;95.10
69189;DHT22;56302;52.322;5.926;2023-11-21T15:01:42;7.60;95.20
69189;DHT22;56302;52.322;5.926;2023-11-21T15:04:11;7.60;95.30
69189;DHT22;56302;52.322;5.926;2023-11-21T15:06:55;7.50;95.50
69189;DHT22;56302;52.322;5.926;2023-11-21T15:09:23;7.50;95.80
69189;DHT22;56302;52.322;5.926;2023-11-21T15:11:54;7.50;95.90
69189;DHT22;56302;52.322;5.926;2023-11-21T15:14:23;7.50;95.90
69189;DHT22;56302;52.322;5.926;2023-11-21T15:16:51;7.50;96.30
69189;DHT22;56302;52.322;5.926;2023-11-21T15:19:18;7.50;96.50
69189;DHT22;56302;52.322;5.926;2023-11-21T15:21:50;7.50;96.30
69189;DHT22;56302;52.322;5.926;2023-11-21T15:24:16;7.50;96.20
69189;DHT22;56302;52.322;5.926;2023-11-21T15:26:41;7.50;96.10
69189;DHT22;56302;52.322;5.926;2023-11-21T15:29:07;7.50;96.10
69189;DHT22;56302;52.322;5.926;2023-11-21T15:31:33;7.50;96.10
69189;DHT22;56302;52.322;5.926;2023-11-21T15:33:58;7.50;96.20
69189;DHT22;56302;52.322;5.926;2023-11-21T15:36:26;7.40;96.20
69189;DHT22;56302;52.322;5.926;2023-11-21T15:38:52;7.40;95.60
69189;DHT22;56302;52.322;5.926;2023-11-21T15:41:20;7.30;95.50
69189;DHT22;56302;52.322;5.926;2023-11-21T15:43:46;7.30;95.50
69189;DHT22;56302;52.322;5.926;2023-11-21T15:46:14;7.30;95.20
69189;DHT22;56302;52.322;5.926;2023-11-21T15:48:39;7.20;95.00
69189;DHT22;56302;52.322;5.926;2023-11-21T15:51:09;7.20;95.20
69189;DHT22;56302;52.322;5.926;2023-11-21T15:53:37;7.10;95.00
69189;DHT22;56302;52.322;5.926;2023-11-21T15:56:04;7.10;95.10